sensor_id;sensor_type;location;lat;lon;timestamp;pressure;altitude;pressure_sealevel;temperature;humidity
68506;BME280;55509;50.680;17.942;2022-12-07T00:02:45;99284.38;;;1.88;93.95
68506;BME280;55509;50.680;17.942;2022-12-07T00:05:47;99281.95;;;1.84;93.86
68506;BME280;55509;50.680;17.942;2022-12-07T00:08:48;99282.46;;;1.81;94.01
68506;BME280;55509;50.680;17.942;2022-12-07T00:11:50;99276.91;;;1.78;93.89
68506;BME280;55509;50.680;17.942;2022-12-07T00:14:52;99274.48;;;1.76;93.85
68506;BME280;55509;50.680;17.942;2022-12-07T00:17:53;99272.05;;;1.77;93.97
68506;BME280;55509;50.680;17.942;2022-12-07T00:20:59;99271.02;;;1.80;93.88
68506;BME280;55509;50.680;17.942;2022-12-07T00:24:01;99272.94;;;1.85;93.98
68506;BME280;55509;50.680;17.942;2022-12-07T00:27:03;99270.85;;;1.89;93.97
68506;BME280;55509;50.680;17.942;2022-12-07T00:30:04;99268.42;;;1.94;94.01
68506;BME280;55509;50.680;17.942;2022-12-07T00:33:06;99264.61;;;1.95;93.66
68506;BME280;55509;50.680;17.942;2022-12-07T00:36:12;99263.92;;;1.93;93.61
68506;BME280;55509;50.680;17.942;2022-12-07T00:39:14;99265.66;;;1.91;93.67
68506;BME280;55509;50.680;17.942;2022-12-07T00:42:15;99264.95;;;1.89;93.82
68506;BME280;55509;50.680;17.942;2022-12-07T00:45:17;99260.27;;;1.88;93.81
68506;BME280;55509;50.680;17.942;2022-12-07T00:48:19;99253.86;;;1.84;93.74
68506;BME280;55509;50.680;17.942;2022-12-07T00:51:22;99250.55;;;1.79;93.78
68506;BME280;55509;50.680;17.942;2022-12-07T00:54:24;99244.66;;;1.75;93.75
68506;BME280;55509;50.680;17.942;2022-12-07T00:57:25;99248.83;;;1.74;93.74
68506;BME280;55509;50.680;17.942;2022-12-07T01:00:26;99254.55;;;1.76;93.84
68506;BME280;55509;50.680;17.942;2022-12-07T01:03:28;99252.65;;;1.80;93.96
68506;BME280;55509;50.680;17.942;2022-12-07T01:06:30;99254.73;;;1.84;93.86
68506;BME280;55509;50.680;17.942;2022-12-07T01:09:31;99255.08;;;1.88;93.68
68506;BME280;55509;50.680;17.942;2022-12-07T01:12:33;99258.37;;;1.91;93.68
68506;BME280;55509;50.680;17.942;2022-12-07T01:15:38;99258.02;;;1.92;93.73
68506;BME280;55509;50.680;17.942;2022-12-07T01:18:40;99255.08;;;1.91;93.78
68506;BME280;55509;50.680;17.942;2022-12-07T01:21:41;99256.98;;;1.89;93.72
68506;BME280;55509;50.680;17.942;2022-12-07T01:24:43;99254.04;;;1.87;93.59
68506;BME280;55509;50.680;17.942;2022-12-07T01:27:44;99251.09;;;1.82;93.64
68506;BME280;55509;50.680;17.942;2022-12-07T01:30:54;99249.52;;;1.81;93.71
68506;BME280;55509;50.680;17.942;2022-12-07T01:33:56;99248.84;;;1.82;93.81
68506;BME280;55509;50.680;17.942;2022-12-07T01:36:58;99244.50;;;1.84;93.61
68506;BME280;55509;50.680;17.942;2022-12-07T01:39:59;99247.96;;;1.86;93.42
68506;BME280;55509;50.680;17.942;2022-12-07T01:43:01;99248.14;;;1.88;93.60
68506;BME280;55509;50.680;17.942;2022-12-07T01:46:03;99245.19;;;1.90;93.45
68506;BME280;55509;50.680;17.942;2022-12-07T01:49:16;99242.23;;;1.89;93.37
68506;BME280;55509;50.680;17.942;2022-12-07T01:52:36;99240.16;;;1.88;93.41
68506;BME280;55509;50.680;17.942;2022-12-07T01:55:40;99240.00;;;1.86;93.42
68506;BME280;55509;50.680;17.942;2022-12-07T01:58:43;99236.70;;;1.80;93.27
68506;BME280;55509;50.680;17.942;2022-12-07T02:01:45;99237.73;;;1.75;93.24
68506;BME280;55509;50.680;17.942;2022-12-07T02:04:47;99234.27;;;1.68;93.14
68506;BME280;55509;50.680;17.942;2022-12-07T02:07:48;99234.25;;;1.60;93.21
68506;BME280;55509;50.680;17.942;2022-12-07T02:10:50;99236.33;;;1.52;93.09
68506;BME280;55509;50.680;17.942;2022-12-07T02:13:52;99239.25;;;1.47;93.07
68506;BME280;55509;50.680;17.942;2022-12-07T02:20:05;99238.55;;;1.43;93.04
68506;BME280;55509;50.680;17.942;2022-12-07T02:30:17;99234.08;;;1.49;93.52
68506;BME280;55509;50.680;17.942;2022-12-07T02:32:57;99232.16;;;1.49;93.73
68506;BME280;55509;50.680;17.942;2022-12-07T02:36:11;99231.98;;;1.48;93.59
68506;BME280;55509;50.680;17.942;2022-12-07T02:39:17;99236.83;;;1.46;93.70
68506;BME280;55509;50.680;17.942;2022-12-07T02:42:23;99231.29;;;1.42;93.75
68506;BME280;55509;50.680;17.942;2022-12-07T02:45:28;99228.33;;;1.39;93.71
68506;BME280;55509;50.680;17.942;2022-12-07T02:48:31;99226.77;;;1.36;93.64
68506;BME280;55509;50.680;17.942;2022-12-07T02:51:38;99226.42;;;1.38;93.64
68506;BME280;55509;50.680;17.942;2022-12-07T02:54:40;99227.29;;;1.41;93.77
68506;BME280;55509;50.680;17.942;2022-12-07T02:57:45;99225.91;;;1.43;93.63
68506;BME280;55509;50.680;17.942;2022-12-07T03:01:40;99224.02;;;1.47;93.79
68506;BME280;55509;50.680;17.942;2022-12-07T03:04:22;99223.84;;;1.50;93.68
68506;BME280;55509;50.680;17.942;2022-12-07T03:13:39;99216.23;;;1.46;93.38
68506;BME280;55509;50.680;17.942;2022-12-07T03:16:47;99213.79;;;1.42;93.59
68506;BME280;55509;50.680;17.942;2022-12-07T03:19:51;99216.38;;;1.38;93.40
68506;BME280;55509;50.680;17.942;2022-12-07T03:22:55;99220.36;;;1.37;93.62
68506;BME280;55509;50.680;17.942;2022-12-07T03:25:59;99220.89;;;1.39;93.62
68506;BME280;55509;50.680;17.942;2022-12-07T03:29:05;99217.76;;;1.40;93.62
68506;BME280;55509;50.680;17.942;2022-12-07T03:41:27;99209.09;;;1.34;93.74
68506;BME280;55509;50.680;17.942;2022-12-07T03:44:30;99211.34;;;1.30;93.82
68506;BME280;55509;50.680;17.942;2022-12-07T03:47:33;99209.42;;;1.25;93.83
68506;BME280;55509;50.680;17.942;2022-12-07T03:53:43;99204.39;;;1.25;93.93
68506;BME280;55509;50.680;17.942;2022-12-07T03:56:46;99197.98;;;1.26;94.05
68506;BME280;55509;50.680;17.942;2022-12-07T03:59:48;99198.86;;;1.26;94.09
68506;BME280;55509;50.680;17.942;2022-12-07T04:02:51;99200.24;;;1.27;94.24
68506;BME280;55509;50.680;17.942;2022-12-07T04:05:53;99200.59;;;1.26;94.30
68506;BME280;55509;50.680;17.942;2022-12-07T04:08:55;99205.26;;;1.23;94.51
68506;BME280;55509;50.680;17.942;2022-12-07T04:11:56;99203.36;;;1.20;94.52
68506;BME280;55509;50.680;17.942;2022-12-07T04:14:57;99201.42;;;1.15;94.56
68506;BME280;55509;50.680;17.942;2022-12-07T04:17:59;99207.34;;;1.16;95.01
68506;BME280;55509;50.680;17.942;2022-12-07T04:21:00;99206.63;;;1.18;94.90
68506;BME280;55509;50.680;17.942;2022-12-07T04:24:02;99209.24;;;1.20;94.79
68506;BME280;55509;50.680;17.942;2022-12-07T04:27:04;99204.38;;;1.23;94.84
68506;BME280;55509;50.680;17.942;2022-12-07T04:30:06;99201.63;;;1.25;94.75
68506;BME280;55509;50.680;17.942;2022-12-07T04:33:07;99199.72;;;1.27;94.96
68506;BME280;55509;50.680;17.942;2022-12-07T04:36:09;99199.20;;;1.28;94.78
68506;BME280;55509;50.680;17.942;2022-12-07T04:39:19;99193.83;;;1.26;94.72
68506;BME280;55509;50.680;17.942;2022-12-07T04:42:21;99192.79;;;1.24;94.82
68506;BME280;55509;50.680;17.942;2022-12-07T04:45:23;99194.52;;;1.22;94.87
68506;BME280;55509;50.680;17.942;2022-12-07T04:48:24;99193.99;;;1.22;94.60
68506;BME280;55509;50.680;17.942;2022-12-07T04:51:27;99197.81;;;1.23;94.84
68506;BME280;55509;50.680;17.942;2022-12-07T04:54:29;99197.47;;;1.27;94.89
68506;BME280;55509;50.680;17.942;2022-12-07T04:57:30;99197.82;;;1.29;94.74
68506;BME280;55509;50.680;17.942;2022-12-07T05:00:32;99199.91;;;1.31;94.82
68506;BME280;55509;50.680;17.942;2022-12-07T05:03:33;99200.77;;;1.33;94.70
68506;BME280;55509;50.680;17.942;2022-12-07T05:06:35;99202.69;;;1.31;94.71
68506;BME280;55509;50.680;17.942;2022-12-07T05:09:36;99205.61;;;1.26;94.48
68506;BME280;55509;50.680;17.942;2022-12-07T05:12:38;99203.00;;;1.23;94.55
68506;BME280;55509;50.680;17.942;2022-12-07T05:15:39;99199.54;;;1.21;94.36
68506;BME280;55509;50.680;17.942;2022-12-07T05:18:41;99196.24;;;1.22;94.30
68506;BME280;55509;50.680;17.942;2022-12-07T05:21:42;99189.84;;;1.23;94.29
68506;BME280;55509;50.680;17.942;2022-12-07T05:24:44;99191.75;;;1.24;94.37
68506;BME280;55509;50.680;17.942;2022-12-07T05:27:45;99195.03;;;1.25;94.48
68506;BME280;55509;50.680;17.942;2022-12-07T05:30:47;99192.09;;;1.24;94.48
68506;BME280;55509;50.680;17.942;2022-12-07T05:33:49;99195.57;;;1.22;94.60
68506;BME280;55509;50.680;17.942;2022-12-07T05:36:50;99196.93;;;1.19;94.62
68506;BME280;55509;50.680;17.942;2022-12-07T05:39:52;99195.55;;;1.16;94.57
68506;BME280;55509;50.680;17.942;2022-12-07T05:42:53;99204.90;;;1.18;94.53
68506;BME280;55509;50.680;17.942;2022-12-07T05:45:55;99208.02;;;1.20;94.55
68506;BME280;55509;50.680;17.942;2022-12-07T05:48:56;99208.90;;;1.23;94.70
68506;BME280;55509;50.680;17.942;2022-12-07T05:51:58;99203.36;;;1.27;94.58
68506;BME280;55509;50.680;17.942;2022-12-07T05:54:59;99203.71;;;1.29;94.61
68506;BME280;55509;50.680;17.942;2022-12-07T05:58:01;99204.95;;;1.33;94.68
68506;BME280;55509;50.680;17.942;2022-12-07T06:01:22;99206.84;;;1.35;94.46
68506;BME280;55509;50.680;17.942;2022-12-07T06:04:25;99213.42;;;1.35;94.57
68506;BME280;55509;50.680;17.942;2022-12-07T06:07:27;99209.61;;;1.32;94.28
68506;BME280;55509;50.680;17.942;2022-12-07T06:10:28;99211.50;;;1.28;94.33
68506;BME280;55509;50.680;17.942;2022-12-07T06:13:30;99214.27;;;1.23;94.42
68506;BME280;55509;50.680;17.942;2022-12-07T06:16:31;99216.00;;;1.19;94.26
68506;BME280;55509;50.680;17.942;2022-12-07T06:19:33;99218.07;;;1.19;94.40
68506;BME280;55509;50.680;17.942;2022-12-07T06:22:34;99217.55;;;1.19;94.45
68506;BME280;55509;50.680;17.942;2022-12-07T06:25:36;99214.79;;;1.21;94.51
68506;BME280;55509;50.680;17.942;2022-12-07T06:28:37;99219.10;;;1.24;94.23
68506;BME280;55509;50.680;17.942;2022-12-07T06:31:39;99216.02;;;1.25;94.40
68506;BME280;55509;50.680;17.942;2022-12-07T06:34:40;99214.62;;;1.25;94.53
68506;BME280;55509;50.680;17.942;2022-12-07T06:37:42;99217.39;;;1.22;94.32
68506;BME280;55509;50.680;17.942;2022-12-07T06:40:43;99213.92;;;1.21;94.42
68506;BME280;55509;50.680;17.942;2022-12-07T06:43:45;99212.86;;;1.19;94.69
68506;BME280;55509;50.680;17.942;2022-12-07T06:46:47;99212.52;;;1.18;94.70
68506;BME280;55509;50.680;17.942;2022-12-07T06:49:49;99211.98;;;1.14;94.71
68506;BME280;55509;50.680;17.942;2022-12-07T06:52:51;99210.08;;;1.13;94.64
68506;BME280;55509;50.680;17.942;2022-12-07T06:55:52;99210.80;;;1.17;95.01
68506;BME280;55509;50.680;17.942;2022-12-07T06:58:54;99211.67;;;1.21;94.78
68506;BME280;55509;50.680;17.942;2022-12-07T07:01:55;99214.62;;;1.26;94.84
68506;BME280;55509;50.680;17.942;2022-12-07T07:04:56;99213.59;;;1.33;95.08
68506;BME280;55509;50.680;17.942;2022-12-07T07:07:58;99214.64;;;1.39;94.87
68506;BME280;55509;50.680;17.942;2022-12-07T07:11:00;99217.42;;;1.42;94.73
68506;BME280;55509;50.680;17.942;2022-12-07T07:14:01;99221.39;;;1.45;94.94
68506;BME280;55509;50.680;17.942;2022-12-07T07:17:03;99220.20;;;1.46;94.89
68506;BME280;55509;50.680;17.942;2022-12-07T07:20:05;99216.71;;;1.46;94.75
68506;BME280;55509;50.680;17.942;2022-12-07T07:23:07;99220.55;;;1.45;94.44
68506;BME280;55509;50.680;17.942;2022-12-07T07:26:08;99220.02;;;1.43;94.67
68506;BME280;55509;50.680;17.942;2022-12-07T07:29:10;99220.19;;;1.45;94.64
68506;BME280;55509;50.680;17.942;2022-12-07T07:32:11;99225.41;;;1.49;94.61
68506;BME280;55509;50.680;17.942;2022-12-07T07:35:13;99223.33;;;1.52;94.52
68506;BME280;55509;50.680;17.942;2022-12-07T07:38:15;99226.27;;;1.54;94.51
68506;BME280;55509;50.680;17.942;2022-12-07T07:41:16;99227.32;;;1.58;94.56
68506;BME280;55509;50.680;17.942;2022-12-07T07:44:18;99230.27;;;1.61;94.44
68506;BME280;55509;50.680;17.942;2022-12-07T07:47:19;99225.41;;;1.63;94.63
68506;BME280;55509;50.680;17.942;2022-12-07T07:50:21;99228.89;;;1.62;94.28
68506;BME280;55509;50.680;17.942;2022-12-07T07:53:22;99228.19;;;1.60;94.34
68506;BME280;55509;50.680;17.942;2022-12-07T07:56:24;99229.41;;;1.60;94.56
68506;BME280;55509;50.680;17.942;2022-12-07T07:59:25;99227.32;;;1.60;94.51
68506;BME280;55509;50.680;17.942;2022-12-07T08:02:28;99229.75;;;1.60;94.50
68506;BME280;55509;50.680;17.942;2022-12-07T08:05:30;99232.69;;;1.62;94.43
68506;BME280;55509;50.680;17.942;2022-12-07T08:08:32;99233.05;;;1.67;94.30
68506;BME280;55509;50.680;17.942;2022-12-07T08:11:33;99232.70;;;1.74;94.24
68506;BME280;55509;50.680;17.942;2022-12-07T08:14:35;99234.27;;;1.79;93.90
68506;BME280;55509;50.680;17.942;2022-12-07T08:17:37;99241.38;;;1.89;94.01
68506;BME280;55509;50.680;17.942;2022-12-07T08:20:38;99236.18;;;1.97;94.02
68506;BME280;55509;50.680;17.942;2022-12-07T08:23:40;99237.21;;;2.05;93.73
68506;BME280;55509;50.680;17.942;2022-12-07T08:26:42;99238.25;;;2.10;93.64
68506;BME280;55509;50.680;17.942;2022-12-07T08:29:43;99233.38;;;2.15;93.21
68506;BME280;55509;50.680;17.942;2022-12-07T08:32:45;99233.38;;;2.22;93.10
68506;BME280;55509;50.680;17.942;2022-12-07T08:35:47;99231.63;;;2.32;92.83
68506;BME280;55509;50.680;17.942;2022-12-07T08:38:48;99228.98;;;2.45;92.43
68506;BME280;55509;50.680;17.942;2022-12-07T08:41:50;99223.20;;;2.67;91.86
68506;BME280;55509;50.680;17.942;2022-12-07T08:44:51;99216.31;;;2.97;91.65
68506;BME280;55509;50.680;17.942;2022-12-07T08:50:54;99212.86;;;3.52;90.06
68506;BME280;55509;50.680;17.942;2022-12-07T08:53:56;99208.54;;;3.73;89.28
68506;BME280;55509;50.680;17.942;2022-12-07T08:56:59;99207.27;;;3.78;88.80
68506;BME280;55509;50.680;17.942;2022-12-07T09:00:02;99206.98;;;3.73;88.18
68506;BME280;55509;50.680;17.942;2022-12-07T09:03:04;99212.94;;;3.67;87.90
68506;BME280;55509;50.680;17.942;2022-12-07T09:06:05;99208.41;;;3.68;87.91
68506;BME280;55509;50.680;17.942;2022-12-07T09:09:07;99208.51;;;3.77;87.29
68506;BME280;55509;50.680;17.942;2022-12-07T09:12:10;99201.95;;;3.91;87.41
68506;BME280;55509;50.680;17.942;2022-12-07T09:15:11;99193.96;;;4.08;86.49
68506;BME280;55509;50.680;17.942;2022-12-07T09:18:13;99192.48;;;4.34;86.52
68506;BME280;55509;50.680;17.942;2022-12-07T09:21:14;99188.09;;;4.55;85.67
68506;BME280;55509;50.680;17.942;2022-12-07T09:24:16;99178.79;;;4.60;85.04
68506;BME280;55509;50.680;17.942;2022-12-07T09:27:17;99175.36;;;4.56;84.84
68506;BME280;55509;50.680;17.942;2022-12-07T09:30:19;99175.63;;;4.48;84.19
68506;BME280;55509;50.680;17.942;2022-12-07T09:33:21;99173.14;;;4.38;84.38
68506;BME280;55509;50.680;17.942;2022-12-07T09:36:24;99172.84;;;4.32;84.15
68506;BME280;55509;50.680;17.942;2022-12-07T09:39:29;99173.23;;;4.29;84.50
68506;BME280;55509;50.680;17.942;2022-12-07T09:42:34;99167.52;;;4.26;84.53
68506;BME280;55509;50.680;17.942;2022-12-07T09:45:36;99164.27;;;4.20;84.04
68506;BME280;55509;50.680;17.942;2022-12-07T09:48:38;99161.95;;;4.08;83.85
68506;BME280;55509;50.680;17.942;2022-12-07T09:51:40;99156.38;;;4.09;84.29
68506;BME280;55509;50.680;17.942;2022-12-07T09:54:43;99158.80;;;4.26;83.54
68506;BME280;55509;50.680;17.942;2022-12-07T09:57:47;99152.24;;;4.52;83.22
68506;BME280;55509;50.680;17.942;2022-12-07T10:00:56;99152.10;;;4.78;82.17
68506;BME280;55509;50.680;17.942;2022-12-07T10:04:01;99144.10;;;5.02;81.63
68506;BME280;55509;50.680;17.942;2022-12-07T10:07:08;99142.48;;;5.30;81.42
68506;BME280;55509;50.680;17.942;2022-12-07T10:10:12;99135.80;;;5.56;80.11
68506;BME280;55509;50.680;17.942;2022-12-07T10:13:17;99132.98;;;5.78;79.35
68506;BME280;55509;50.680;17.942;2022-12-07T10:19:31;99127.79;;;6.17;76.87
68506;BME280;55509;50.680;17.942;2022-12-07T10:22:34;99123.98;;;6.43;75.75
68506;BME280;55509;50.680;17.942;2022-12-07T10:25:36;99125.55;;;6.60;74.77
68506;BME280;55509;50.680;17.942;2022-12-07T10:28:39;99124.44;;;6.62;74.70
68506;BME280;55509;50.680;17.942;2022-12-07T10:31:41;99130.41;;;6.53;72.38
68506;BME280;55509;50.680;17.942;2022-12-07T10:34:42;99123.52;;;6.47;71.10
68506;BME280;55509;50.680;17.942;2022-12-07T10:37:45;99122.36;;;6.44;70.78
68506;BME280;55509;50.680;17.942;2022-12-07T10:40:46;99124.20;;;6.40;71.59
68506;BME280;55509;50.680;17.942;2022-12-07T10:43:49;99122.05;;;6.43;71.73
68506;BME280;55509;50.680;17.942;2022-12-07T10:50:17;99120.66;;;6.68;70.93
68506;BME280;55509;50.680;17.942;2022-12-07T11:02:55;99104.48;;;7.83;65.93
68506;BME280;55509;50.680;17.942;2022-12-07T11:15:24;99105.62;;;6.68;65.97
68506;BME280;55509;50.680;17.942;2022-12-07T11:21:45;99096.64;;;6.47;65.26
68506;BME280;55509;50.680;17.942;2022-12-07T11:24:53;99099.05;;;6.23;65.28
68506;BME280;55509;50.680;17.942;2022-12-07T11:28:03;99087.33;;;6.15;65.67
68506;BME280;55509;50.680;17.942;2022-12-07T11:31:22;99083.53;;;6.21;67.38
68506;BME280;55509;50.680;17.942;2022-12-07T11:37:47;99084.66;;;6.26;64.94
68506;BME280;55509;50.680;17.942;2022-12-07T11:40:49;99082.11;;;6.22;64.61
68506;BME280;55509;50.680;17.942;2022-12-07T11:47:01;99063.13;;;5.91;64.70
68506;BME280;55509;50.680;17.942;2022-12-07T11:50:38;99065.98;;;5.69;66.15
68506;BME280;55509;50.680;17.942;2022-12-07T11:56:36;99061.77;;;5.30;66.73
68506;BME280;55509;50.680;17.942;2022-12-07T11:59:40;99066.73;;;5.15;66.19
68506;BME280;55509;50.680;17.942;2022-12-07T12:05:48;99065.17;;;4.90;65.79
68506;BME280;55509;50.680;17.942;2022-12-07T12:08:53;99062.86;;;4.82;66.06
68506;BME280;55509;50.680;17.942;2022-12-07T12:21:55;99076.45;;;4.28;67.86
68506;BME280;55509;50.680;17.942;2022-12-07T12:24:58;99073.34;;;4.11;67.73
68506;BME280;55509;50.680;17.942;2022-12-07T12:27:59;99070.73;;;3.98;68.71
68506;BME280;55509;50.680;17.942;2022-12-07T12:37:40;99068.65;;;3.79;70.01
68506;BME280;55509;50.680;17.942;2022-12-07T12:40:43;99063.96;;;3.80;70.15
68506;BME280;55509;50.680;17.942;2022-12-07T12:43:48;99061.55;;;3.78;70.31
68506;BME280;55509;50.680;17.942;2022-12-07T12:46:57;99053.73;;;3.78;70.83
68506;BME280;55509;50.680;17.942;2022-12-07T12:53:21;99057.75;;;3.73;70.98
68506;BME280;55509;50.680;17.942;2022-12-07T12:56:35;99064.20;;;3.73;71.02
68506;BME280;55509;50.680;17.942;2022-12-07T13:02:53;99062.67;;;3.69;71.32
68506;BME280;55509;50.680;17.942;2022-12-07T13:09:17;99059.24;;;3.64;72.05
68506;BME280;55509;50.680;17.942;2022-12-07T13:12:21;99053.95;;;3.71;71.99
68506;BME280;55509;50.680;17.942;2022-12-07T13:15:32;99059.27;;;3.78;72.21
68506;BME280;55509;50.680;17.942;2022-12-07T13:18:37;99055.04;;;3.85;71.43
68506;BME280;55509;50.680;17.942;2022-12-07T13:21:43;99058.36;;;3.82;70.79
68506;BME280;55509;50.680;17.942;2022-12-07T13:24:45;99060.66;;;3.77;71.05
68506;BME280;55509;50.680;17.942;2022-12-07T13:31:13;99076.46;;;3.63;71.22
68506;BME280;55509;50.680;17.942;2022-12-07T13:37:32;99078.13;;;3.54;72.13
68506;BME280;55509;50.680;17.942;2022-12-07T13:40:34;99077.28;;;3.50;72.09
68506;BME280;55509;50.680;17.942;2022-12-07T13:43:47;99083.75;;;3.46;72.16
68506;BME280;55509;50.680;17.942;2022-12-07T13:49:52;99093.13;;;3.48;72.71
68506;BME280;55509;50.680;17.942;2022-12-07T13:52:55;99091.55;;;3.49;72.12
68506;BME280;55509;50.680;17.942;2022-12-07T13:55:57;99090.65;;;3.51;72.26
68506;BME280;55509;50.680;17.942;2022-12-07T13:58:59;99085.29;;;3.49;72.58
68506;BME280;55509;50.680;17.942;2022-12-07T14:02:01;99088.75;;;3.50;73.23
68506;BME280;55509;50.680;17.942;2022-12-07T14:11:19;99094.89;;;3.44;73.44
68506;BME280;55509;50.680;17.942;2022-12-07T14:14:30;99091.27;;;3.42;73.46
68506;BME280;55509;50.680;17.942;2022-12-07T14:17:33;99097.20;;;3.38;73.44
68506;BME280;55509;50.680;17.942;2022-12-07T14:23:37;99091.66;;;3.35;73.42
68506;BME280;55509;50.680;17.942;2022-12-07T14:26:39;99089.77;;;3.34;73.28
68506;BME280;55509;50.680;17.942;2022-12-07T14:29:41;99089.09;;;3.30;73.59
68506;BME280;55509;50.680;17.942;2022-12-07T14:32:43;99087.40;;;3.26;73.55
68506;BME280;55509;50.680;17.942;2022-12-07T14:35:49;99087.43;;;3.21;73.52
68506;BME280;55509;50.680;17.942;2022-12-07T14:38:51;99086.77;;;3.16;73.63
68506;BME280;55509;50.680;17.942;2022-12-07T14:41:55;99081.25;;;3.11;73.64
68506;BME280;55509;50.680;17.942;2022-12-07T14:44:57;99089.61;;;3.08;73.68
68506;BME280;55509;50.680;17.942;2022-12-07T14:47:59;99088.59;;;3.06;73.90
68506;BME280;55509;50.680;17.942;2022-12-07T14:51:01;99084.06;;;3.06;74.18
68506;BME280;55509;50.680;17.942;2022-12-07T14:54:02;99086.83;;;3.08;74.05
68506;BME280;55509;50.680;17.942;2022-12-07T14:57:09;99086.31;;;3.09;74.07
68506;BME280;55509;50.680;17.942;2022-12-07T15:00:15;99091.19;;;3.08;74.20
68506;BME280;55509;50.680;17.942;2022-12-07T15:03:18;99091.02;;;3.05;74.27
68506;BME280;55509;50.680;17.942;2022-12-07T15:06:19;99088.96;;;3.01;73.97
68506;BME280;55509;50.680;17.942;2022-12-07T15:09:21;99086.92;;;2.95;74.37
68506;BME280;55509;50.680;17.942;2022-12-07T15:12:22;99087.83;;;2.89;74.65
68506;BME280;55509;50.680;17.942;2022-12-07T15:15:26;99087.02;;;2.82;74.78
68506;BME280;55509;50.680;17.942;2022-12-07T15:18:27;99083.40;;;2.77;75.10
68506;BME280;55509;50.680;17.942;2022-12-07T15:21:29;99085.66;;;2.75;75.40
68506;BME280;55509;50.680;17.942;2022-12-07T15:24:30;99094.15;;;2.78;75.31
68506;BME280;55509;50.680;17.942;2022-12-07T15:27:32;99093.08;;;2.81;75.43
68506;BME280;55509;50.680;17.942;2022-12-07T15:30:36;99093.77;;;2.83;75.35
68506;BME280;55509;50.680;17.942;2022-12-07T15:33:37;99096.55;;;2.84;75.30
68506;BME280;55509;50.680;17.942;2022-12-07T15:36:39;99092.55;;;2.83;75.39
68506;BME280;55509;50.680;17.942;2022-12-07T15:39:40;99093.61;;;2.80;75.49
68506;BME280;55509;50.680;17.942;2022-12-07T15:42:42;99093.28;;;2.77;75.48
68506;BME280;55509;50.680;17.942;2022-12-07T15:45:43;99090.17;;;2.76;75.67
68506;BME280;55509;50.680;17.942;2022-12-07T15:48:45;99094.70;;;2.73;75.82
68506;BME280;55509;50.680;17.942;2022-12-07T15:51:46;99094.55;;;2.70;75.96
68506;BME280;55509;50.680;17.942;2022-12-07T15:54:48;99097.52;;;2.67;75.97
68506;BME280;55509;50.680;17.942;2022-12-07T15:57:50;99102.38;;;2.65;76.17
68506;BME280;55509;50.680;17.942;2022-12-07T16:00:51;99102.22;;;2.64;76.09
68506;BME280;55509;50.680;17.942;2022-12-07T16:03:53;99099.09;;;2.66;76.26
68506;BME280;55509;50.680;17.942;2022-12-07T16:06:55;99101.67;;;2.69;75.90
68506;BME280;55509;50.680;17.942;2022-12-07T16:09:57;99107.73;;;2.73;75.86
68506;BME280;55509;50.680;17.942;2022-12-07T16:12:59;99107.36;;;2.75;75.79
68506;BME280;55509;50.680;17.942;2022-12-07T16:16:04;99106.31;;;2.75;75.91
68506;BME280;55509;50.680;17.942;2022-12-07T16:19:06;99110.48;;;2.75;76.08
68506;BME280;55509;50.680;17.942;2022-12-07T16:22:08;99101.64;;;2.73;76.23
68506;BME280;55509;50.680;17.942;2022-12-07T16:25:10;99101.30;;;2.70;76.31
68506;BME280;55509;50.680;17.942;2022-12-07T16:28:11;99101.16;;;2.68;76.44
68506;BME280;55509;50.680;17.942;2022-12-07T16:31:14;99103.77;;;2.65;76.55
68506;BME280;55509;50.680;17.942;2022-12-07T16:34:16;99108.46;;;2.64;76.60
68506;BME280;55509;50.680;17.942;2022-12-07T16:37:17;99107.92;;;2.66;76.50
68506;BME280;55509;50.680;17.942;2022-12-07T16:40:19;99114.33;;;2.70;76.19
68506;BME280;55509;50.680;17.942;2022-12-07T16:43:20;99121.10;;;2.73;76.41
68506;BME280;55509;50.680;17.942;2022-12-07T16:46:22;99128.37;;;2.74;76.67
68506;BME280;55509;50.680;17.942;2022-12-07T16:49:23;99139.85;;;2.72;76.62
68506;BME280;55509;50.680;17.942;2022-12-07T16:52:25;99146.65;;;2.66;77.20
68506;BME280;55509;50.680;17.942;2022-12-07T16:55:26;99143.91;;;2.55;77.90
68506;BME280;55509;50.680;17.942;2022-12-07T16:58:28;99147.08;;;2.45;78.56
68506;BME280;55509;50.680;17.942;2022-12-07T17:01:30;99148.14;;;2.36;78.95
68506;BME280;55509;50.680;17.942;2022-12-07T17:04:32;99150.77;;;2.31;79.41
68506;BME280;55509;50.680;17.942;2022-12-07T17:07:34;99154.07;;;2.30;79.85
68506;BME280;55509;50.680;17.942;2022-12-07T17:10:36;99147.99;;;2.30;80.18
68506;BME280;55509;50.680;17.942;2022-12-07T17:13:38;99141.76;;;2.30;80.42
68506;BME280;55509;50.680;17.942;2022-12-07T17:16:58;99142.63;;;2.26;80.66
68506;BME280;55509;50.680;17.942;2022-12-07T17:20:00;99149.77;;;2.20;81.05
68506;BME280;55509;50.680;17.942;2022-12-07T17:23:02;99147.52;;;2.15;81.41
68506;BME280;55509;50.680;17.942;2022-12-07T17:26:22;99150.30;;;2.10;81.83
68506;BME280;55509;50.680;17.942;2022-12-07T17:29:24;99145.13;;;2.07;82.30
68506;BME280;55509;50.680;17.942;2022-12-07T17:32:27;99146.85;;;2.06;82.43
68506;BME280;55509;50.680;17.942;2022-12-07T17:35:29;99145.63;;;2.06;82.78
68506;BME280;55509;50.680;17.942;2022-12-07T17:38:31;99149.79;;;2.06;82.92
68506;BME280;55509;50.680;17.942;2022-12-07T17:41:32;99151.35;;;2.05;83.22
68506;BME280;55509;50.680;17.942;2022-12-07T17:44:53;99149.10;;;2.01;83.50
68506;BME280;55509;50.680;17.942;2022-12-07T17:47:55;99154.67;;;1.94;83.78
68506;BME280;55509;50.680;17.942;2022-12-07T17:50:59;99151.55;;;1.88;84.09
68506;BME280;55509;50.680;17.942;2022-12-07T17:54:19;99156.42;;;1.84;84.42
68506;BME280;55509;50.680;17.942;2022-12-07T17:57:21;99152.44;;;1.78;84.77
68506;BME280;55509;50.680;17.942;2022-12-07T18:00:23;99154.35;;;1.72;85.19
68506;BME280;55509;50.680;17.942;2022-12-07T18:03:24;99152.45;;;1.69;85.29
68506;BME280;55509;50.680;17.942;2022-12-07T18:06:26;99151.41;;;1.69;85.35
68506;BME280;55509;50.680;17.942;2022-12-07T18:09:28;99146.37;;;1.67;85.47